Time;durP1;ratioP1;P1;durP2;ratioP2;P2;SDS_P1;SDS_P2;PMS_P1;PMS_P2;Temp;Humidity;BMP_temperature;BMP_pressure;BME280_temperature;BME280_humidity;BME280_pressure;Samples;Min_cycle;Max_cycle;Signal;HPM_P1;HPM_P2
2024/01/25 00:01:39;;;;;;;35.58;6.82;;;7.40;99.90;;;;;;5008852;28;20038;-72
2024/01/25 00:04:05;;;;;;;37.00;7.57;;;7.30;99.90;;;;;;5028871;28;20041;-72
2024/01/25 00:06:31;;;;;;;38.13;7.13;;;7.40;99.90;;;;;;5046102;28;20045;-72
2024/01/25 00:08:56;;;;;;;36.13;6.90;;;7.30;99.90;;;;;;5030098;28;20049;-71
2024/01/25 00:11:22;;;;;;;33.22;7.05;;;7.30;99.90;;;;;;5034285;28;20038;-72
2024/01/25 00:13:48;;;;;;;38.95;7.40;;;7.30;99.90;;;;;;5034455;28;20041;-72
2024/01/25 00:16:13;;;;;;;35.45;8.20;;;7.20;99.90;;;;;;5034182;28;20045;-72
2024/01/25 00:18:39;;;;;;;29.45;6.38;;;7.20;99.90;;;;;;5031154;28;20136;-72
2024/01/25 00:21:05;;;;;;;34.70;7.25;;;7.20;99.90;;;;;;5033619;28;20459;-72
2024/01/25 00:23:30;;;;;;;36.88;6.85;;;7.20;99.90;;;;;;5032578;28;20045;-72
2024/01/25 00:25:58;;;;;;;36.15;7.25;;;7.10;99.90;;;;;;5033354;28;20316;-72
2024/01/25 00:28:25;;;;;;;32.78;6.95;;;7.10;99.90;;;;;;5032747;28;20492;-72
2024/01/25 00:30:51;;;;;;;39.63;6.65;;;7.10;99.90;;;;;;5032148;28;20108;-72
2024/01/25 00:33:17;;;;;;;38.13;7.05;;;7.00;99.90;;;;;;5066018;28;20436;-71
2024/01/25 00:35:43;;;;;;;35.20;6.57;;;7.00;99.90;;;;;;5033820;28;20045;-72
2024/01/25 00:38:09;;;;;;;52.05;8.45;;;7.00;99.90;;;;;;5032715;28;20034;-71
2024/01/25 00:40:35;;;;;;;35.80;6.30;;;7.00;99.90;;;;;;5025229;28;20176;-72
2024/01/25 00:43:01;;;;;;;33.50;7.28;;;6.90;99.90;;;;;;5032848;28;20041;-71
2024/01/25 00:45:26;;;;;;;41.55;6.97;;;6.90;99.90;;;;;;5032584;28;20068;-72
2024/01/25 00:47:52;;;;;;;32.15;6.30;;;6.90;99.90;;;;;;5048365;28;20053;-72
2024/01/25 00:50:20;;;;;;;44.35;7.45;;;6.80;99.90;;;;;;5030128;28;20501;-71
2024/01/25 00:52:48;;;;;;;38.17;6.88;;;6.80;99.90;;;;;;5065437;28;20102;-71
2024/01/25 00:55:14;;;;;;;34.40;6.60;;;6.80;99.90;;;;;;5066481;28;20045;-72
2024/01/25 00:57:40;;;;;;;41.65;8.23;;;6.70;99.90;;;;;;5064858;28;20054;-72
2024/01/25 01:00:08;;;;;;;33.50;7.32;;;6.70;99.90;;;;;;5033521;28;20045;-74
2024/01/25 01:02:36;;;;;;;40.75;7.70;;;6.70;99.90;;;;;;5031727;28;20106;-73
2024/01/25 01:05:02;;;;;;;35.03;7.18;;;6.60;99.90;;;;;;5033543;28;20067;-71
2024/01/25 01:07:28;;;;;;;38.20;7.15;;;6.70;99.90;;;;;;5032087;28;20148;-73
2024/01/25 01:09:53;;;;;;;43.40;8.45;;;6.60;99.90;;;;;;5033678;28;20045;-72
2024/01/25 01:12:19;;;;;;;41.80;7.32;;;6.60;99.90;;;;;;5031559;28;20037;-72
2024/01/25 01:14:45;;;;;;;44.90;7.28;;;6.60;99.90;;;;;;5032106;28;20049;-71
2024/01/25 01:17:10;;;;;;;33.70;7.43;;;6.60;99.90;;;;;;5032784;28;20046;-71
2024/01/25 01:19:36;;;;;;;41.90;7.93;;;6.60;99.90;;;;;;5031514;28;20041;-71
2024/01/25 01:22:02;;;;;;;44.25;7.57;;;6.50;99.90;;;;;;5029683;28;20077;-72
2024/01/25 01:24:28;;;;;;;45.30;8.25;;;6.50;99.90;;;;;;5032915;28;20045;-71
2024/01/25 01:26:53;;;;;;;40.58;7.70;;;6.50;99.90;;;;;;5031891;28;20406;-71
2024/01/25 01:29:19;;;;;;;38.50;7.15;;;6.50;99.90;;;;;;5015313;28;20049;-72
2024/01/25 01:31:46;;;;;;;31.90;6.97;;;6.50;99.90;;;;;;5031435;28;20099;-71
2024/01/25 01:34:14;;;;;;;29.92;6.70;;;6.50;99.90;;;;;;5018904;28;20414;-72
2024/01/25 01:36:40;;;;;;;42.17;6.93;;;6.50;99.90;;;;;;5032343;28;20050;-71
2024/01/25 01:39:06;;;;;;;42.58;7.55;;;6.50;99.90;;;;;;5032396;28;20046;-72
2024/01/25 01:41:32;;;;;;;40.92;7.38;;;6.50;99.90;;;;;;5030646;28;20042;-72
2024/01/25 01:43:57;;;;;;;33.85;6.90;;;6.40;99.90;;;;;;5030616;28;20045;-71
2024/01/25 01:46:39;;;;;;;36.00;8.00;;;6.40;99.90;;;;;;5064529;28;20041;-71
2024/01/25 01:49:06;;;;;;;35.95;6.53;;;6.40;99.90;;;;;;5032504;28;20479;-71
2024/01/25 01:51:33;;;;;;;36.08;7.35;;;6.40;99.90;;;;;;5031631;28;20048;-71
2024/01/25 01:54:00;;;;;;;34.25;6.57;;;6.40;99.90;;;;;;5031182;28;20041;-72
2024/01/25 01:56:28;;;;;;;42.28;7.25;;;6.40;99.90;;;;;;5032415;28;20049;-72
2024/01/25 01:58:59;;;;;;;39.88;6.88;;;6.40;99.90;;;;;;5032790;28;20049;-72
2024/01/25 02:01:25;;;;;;;27.02;6.18;;;6.40;99.90;;;;;;5032329;28;20045;-71
2024/01/25 02:03:52;;;;;;;34.75;6.38;;;6.40;99.90;;;;;;5031029;28;20045;-71
2024/01/25 02:06:18;;;;;;;35.00;6.80;;;6.40;99.90;;;;;;5027581;28;20132;-71
2024/01/25 02:08:44;;;;;;;43.13;8.25;;;6.40;99.90;;;;;;5027256;28;20049;-71
2024/01/25 02:11:12;;;;;;;33.70;6.35;;;6.30;99.90;;;;;;5032765;28;20135;-71
2024/01/25 02:13:38;;;;;;;40.63;7.93;;;6.30;99.90;;;;;;5058606;28;20099;-72
2024/01/25 02:16:06;;;;;;;33.90;7.35;;;6.40;99.90;;;;;;5030791;28;20109;-72
2024/01/25 02:18:33;;;;;;;38.30;6.25;;;6.30;99.90;;;;;;5031856;28;20045;-71
2024/01/25 02:20:59;;;;;;;43.47;8.13;;;6.30;99.90;;;;;;5031951;28;20409;-72
2024/01/25 02:23:24;;;;;;;42.67;7.28;;;6.30;99.90;;;;;;5030736;28;20045;-71
2024/01/25 02:25:50;;;;;;;44.35;8.02;;;6.30;99.90;;;;;;5027055;28;20654;-72
2024/01/25 02:28:16;;;;;;;36.22;6.07;;;6.30;99.90;;;;;;5031369;28;20029;-72
2024/01/25 02:30:41;;;;;;;35.38;6.10;;;6.30;99.90;;;;;;5031513;28;20037;-72
2024/01/25 02:33:07;;;;;;;33.13;6.32;;;6.30;99.90;;;;;;5030667;28;20042;-72
2024/01/25 02:35:33;;;;;;;38.90;7.07;;;6.30;99.90;;;;;;5045365;28;20115;-71
2024/01/25 02:37:59;;;;;;;47.40;8.95;;;6.20;99.90;;;;;;5030402;28;20041;-71
2024/01/25 02:40:24;;;;;;;41.28;6.70;;;6.20;99.90;;;;;;5032163;28;20033;-72
2024/01/25 02:42:50;;;;;;;32.78;6.38;;;6.20;99.90;;;;;;5029834;28;20045;-72
2024/01/25 02:45:16;;;;;;;40.28;7.38;;;6.20;99.90;;;;;;5031793;28;20041;-71
2024/01/25 02:47:41;;;;;;;39.33;7.47;;;6.30;99.90;;;;;;5028275;28;20146;-71
2024/01/25 02:50:08;;;;;;;35.38;6.78;;;6.30;99.90;;;;;;5031924;28;20398;-71
2024/01/25 02:52:33;;;;;;;35.20;6.28;;;6.20;99.90;;;;;;5030530;28;20116;-71
2024/01/25 02:54:59;;;;;;;33.35;6.07;;;6.20;99.90;;;;;;5029589;28;20491;-72
2024/01/25 02:57:25;;;;;;;33.45;7.22;;;6.10;99.90;;;;;;5022281;28;20050;-72
2024/01/25 02:59:51;;;;;;;28.20;6.57;;;6.20;99.90;;;;;;5030078;28;20052;-72
2024/01/25 03:02:19;;;;;;;37.22;7.40;;;6.10;99.90;;;;;;5031732;28;20511;-72
2024/01/25 03:04:45;;;;;;;38.30;7.35;;;6.10;99.90;;;;;;5030137;28;20045;-73
2024/01/25 03:07:10;;;;;;;45.60;8.68;;;6.10;99.90;;;;;;5031361;28;20037;-72
2024/01/25 03:09:36;;;;;;;48.58;7.32;;;6.10;99.90;;;;;;5031604;28;20372;-72
2024/01/25 03:12:02;;;;;;;37.53;7.03;;;6.00;99.90;;;;;;5031275;28;20115;-72
2024/01/25 03:14:27;;;;;;;43.35;8.38;;;6.00;99.90;;;;;;5029970;28;20056;-72
2024/01/25 03:16:53;;;;;;;45.00;8.10;;;6.00;99.90;;;;;;5031266;28;20045;-73
2024/01/25 03:19:19;;;;;;;43.10;8.25;;;6.00;99.90;;;;;;5031310;28;20510;-72
2024/01/25 03:21:44;;;;;;;41.20;6.75;;;6.00;99.90;;;;;;5031266;28;20386;-72
2024/01/25 03:24:10;;;;;;;41.53;9.88;;;5.90;99.90;;;;;;5028019;28;20529;-72
2024/01/25 03:26:36;;;;;;;45.05;8.90;;;5.90;99.90;;;;;;5031060;28;20081;-71
2024/01/25 03:29:01;;;;;;;38.42;7.45;;;5.90;99.90;;;;;;5013203;28;20048;-72
2024/01/25 03:31:27;;;;;;;37.13;7.88;;;5.80;99.90;;;;;;5030230;28;20399;-72
2024/01/25 03:33:53;;;;;;;35.97;7.15;;;5.90;99.90;;;;;;5030099;28;20045;-72
2024/01/25 03:36:19;;;;;;;43.63;8.85;;;5.80;99.90;;;;;;5027175;28;20168;-72
2024/01/25 03:38:44;;;;;;;60.88;8.60;;;5.80;99.90;;;;;;5030037;28;20099;-72
2024/01/25 03:41:10;;;;;;;46.72;8.15;;;5.80;99.90;;;;;;5063588;28;20128;-72
2024/01/25 03:43:36;;;;;;;52.85;7.90;;;5.70;99.90;;;;;;5031346;28;20156;-71
2024/01/25 03:46:02;;;;;;;41.60;8.00;;;5.80;99.90;;;;;;5033682;28;20037;-72
2024/01/25 03:48:28;;;;;;;41.40;7.80;;;5.70;99.90;;;;;;5035146;28;20045;-71
2024/01/25 03:50:57;;;;;;;36.97;6.93;;;5.70;99.90;;;;;;5034333;28;20053;-71
2024/01/25 03:53:23;;;;;;;37.60;7.18;;;5.70;99.90;;;;;;5034824;28;20127;-72
2024/01/25 03:55:49;;;;;;;43.67;8.32;;;5.60;99.90;;;;;;5033214;28;20037;-72
2024/01/25 03:58:17;;;;;;;46.88;8.13;;;5.70;99.90;;;;;;5034576;28;20060;-72
2024/01/25 04:00:43;;;;;;;37.63;7.20;;;5.70;99.90;;;;;;5034248;28;20483;-72
2024/01/25 04:03:10;;;;;;;35.15;6.82;;;5.70;99.90;;;;;;5034283;28;20041;-72
2024/01/25 04:05:36;;;;;;;41.17;7.82;;;5.60;99.90;;;;;;5034559;28;20478;-72
2024/01/25 04:08:02;;;;;;;41.95;8.20;;;5.60;99.90;;;;;;5030971;28;20056;-72
2024/01/25 04:10:27;;;;;;;38.85;6.97;;;5.60;99.90;;;;;;5050438;28;20049;-71
2024/01/25 04:12:53;;;;;;;43.28;8.18;;;5.60;99.90;;;;;;5026652;28;20081;-72
2024/01/25 04:15:19;;;;;;;46.33;7.03;;;5.60;99.90;;;;;;5030263;28;20099;-72
2024/01/25 04:17:44;;;;;;;37.53;7.00;;;5.60;99.90;;;;;;5065176;28;20045;-72
2024/01/25 04:20:10;;;;;;;41.22;7.05;;;5.60;99.90;;;;;;5049649;28;20045;-72
2024/01/25 04:22:36;;;;;;;42.83;7.50;;;5.50;99.90;;;;;;5050384;28;20084;-71
2024/01/25 04:25:02;;;;;;;35.47;6.85;;;5.50;99.90;;;;;;5032846;28;20052;-72
2024/01/25 04:27:28;;;;;;;45.42;7.18;;;5.40;99.90;;;;;;5014618;28;20057;-72
2024/01/25 04:29:54;;;;;;;45.17;7.63;;;5.50;99.90;;;;;;5034015;28;20037;-72
2024/01/25 04:32:20;;;;;;;42.03;7.82;;;5.50;99.90;;;;;;5034425;28;20111;-72
2024/01/25 04:34:47;;;;;;;43.72;7.30;;;5.50;99.90;;;;;;5049197;28;20042;-72
2024/01/25 04:37:13;;;;;;;60.65;7.95;;;5.60;99.90;;;;;;5032537;28;20053;-72
2024/01/25 04:39:39;;;;;;;42.80;7.47;;;5.50;99.90;;;;;;5033594;28;20475;-72
2024/01/25 04:42:05;;;;;;;42.05;8.20;;;5.40;99.90;;;;;;5033775;28;20056;-73
2024/01/25 04:44:31;;;;;;;42.63;7.65;;;5.40;99.90;;;;;;5032618;28;20138;-72
2024/01/25 04:46:56;;;;;;;39.47;8.35;;;5.40;99.90;;;;;;5032136;28;20471;-72
2024/01/25 04:49:22;;;;;;;56.47;8.70;;;5.40;99.90;;;;;;5032711;28;20486;-72
2024/01/25 04:51:48;;;;;;;45.65;7.75;;;5.40;99.90;;;;;;5065040;28;20048;-72
2024/01/25 04:54:15;;;;;;;43.33;8.73;;;5.30;99.90;;;;;;5065213;28;20505;-73
2024/01/25 04:56:41;;;;;;;42.20;7.78;;;5.40;99.90;;;;;;5031989;28;20041;-72
2024/01/25 04:59:07;;;;;;;37.92;7.07;;;5.30;99.90;;;;;;5025890;28;20053;-73
2024/01/25 05:01:33;;;;;;;37.17;8.30;;;5.40;99.90;;;;;;5016267;28;20099;-73
2024/01/25 05:03:59;;;;;;;46.60;7.38;;;5.30;99.90;;;;;;5033576;28;20042;-72
2024/01/25 05:06:25;;;;;;;40.15;7.15;;;5.30;99.90;;;;;;5032998;28;20038;-72
2024/01/25 05:08:51;;;;;;;46.08;8.15;;;5.30;99.90;;;;;;5020159;28;20418;-72
2024/01/25 05:11:17;;;;;;;46.08;7.38;;;5.20;99.90;;;;;;5021851;28;20041;-73
2024/01/25 05:13:43;;;;;;;45.08;8.32;;;5.30;99.90;;;;;;5051948;28;20475;-72
2024/01/25 05:16:08;;;;;;;36.90;7.07;;;5.30;99.90;;;;;;5032923;28;20052;-72
2024/01/25 05:18:34;;;;;;;37.47;7.25;;;5.30;99.90;;;;;;5032195;28;20204;-72
2024/01/25 05:21:00;;;;;;;40.28;6.60;;;5.20;99.90;;;;;;5031153;28;20052;-73
2024/01/25 05:23:26;;;;;;;38.58;6.55;;;5.20;99.90;;;;;;5023313;28;20053;-72
2024/01/25 05:25:52;;;;;;;39.28;7.32;;;5.20;99.90;;;;;;5032159;28;20371;-72
2024/01/25 05:28:17;;;;;;;40.15;7.07;;;5.20;99.90;;;;;;5032746;28;20045;-72
2024/01/25 05:30:43;;;;;;;46.90;7.60;;;5.10;99.90;;;;;;5031186;28;20375;-73
2024/01/25 05:33:09;;;;;;;50.28;8.82;;;5.10;99.90;;;;;;5048144;28;20047;-73
2024/01/25 05:35:34;;;;;;;46.85;8.00;;;5.10;99.90;;;;;;5065217;28;20049;-73
2024/01/25 05:38:00;;;;;;;28.88;6.57;;;5.10;99.90;;;;;;5032225;28;20037;-73
2024/01/25 05:40:26;;;;;;;46.72;7.80;;;5.10;99.90;;;;;;5031110;28;20072;-73
2024/01/25 05:42:52;;;;;;;46.10;8.20;;;5.10;99.90;;;;;;5064742;28;20053;-73
2024/01/25 05:45:20;;;;;;;44.28;7.55;;;5.10;99.90;;;;;;5032647;28;20046;-73
2024/01/25 05:47:46;;;;;;;34.95;6.93;;;5.00;99.90;;;;;;5032951;28;20117;-72
2024/01/25 05:50:12;;;;;;;47.58;7.82;;;5.00;99.90;;;;;;5014521;28;20037;-73
2024/01/25 05:52:38;;;;;;;47.88;8.50;;;5.00;99.90;;;;;;5031533;28;20386;-73
2024/01/25 05:55:05;;;;;;;55.58;7.65;;;5.00;99.90;;;;;;5031952;28;20429;-72
2024/01/25 05:57:30;;;;;;;41.67;8.23;;;5.00;99.90;;;;;;5031223;28;20059;-72
2024/01/25 05:59:56;;;;;;;39.65;7.70;;;5.00;99.90;;;;;;5032519;28;20050;-73
2024/01/25 06:02:22;;;;;;;45.38;7.68;;;5.00;99.90;;;;;;5025819;28;20060;-73
2024/01/25 06:04:47;;;;;;;37.85;7.22;;;5.00;99.90;;;;;;5019201;28;20075;-73
2024/01/25 06:07:13;;;;;;;37.45;7.30;;;5.00;99.90;;;;;;5015164;28;20065;-73
2024/01/25 06:09:39;;;;;;;47.03;8.50;;;5.00;99.90;;;;;;5017886;28;20491;-73
2024/01/25 06:12:05;;;;;;;57.13;8.50;;;4.90;99.90;;;;;;5014501;28;20464;-73
2024/01/25 06:14:31;;;;;;;37.13;7.78;;;4.90;99.90;;;;;;5024589;28;20060;-72
2024/01/25 06:16:56;;;;;;;49.38;7.82;;;4.90;99.90;;;;;;5025917;28;20038;-72
2024/01/25 06:19:22;;;;;;;41.42;7.53;;;5.00;99.90;;;;;;5029905;28;20072;-72
2024/01/25 06:21:48;;;;;;;44.08;8.50;;;5.00;99.90;;;;;;5018325;28;20392;-72
2024/01/25 06:24:13;;;;;;;34.10;7.72;;;4.90;99.90;;;;;;5030829;28;20042;-72
2024/01/25 06:26:39;;;;;;;49.95;6.93;;;4.90;99.90;;;;;;5027553;28;20045;-72
2024/01/25 06:29:05;;;;;;;38.72;7.68;;;4.90;99.90;;;;;;5028352;28;20040;-72
2024/01/25 06:31:31;;;;;;;43.67;6.93;;;4.90;99.90;;;;;;5029768;28;20041;-72
2024/01/25 06:33:56;;;;;;;38.83;6.85;;;4.90;99.90;;;;;;5032098;28;20120;-72
2024/01/25 06:36:22;;;;;;;46.72;8.93;;;4.90;99.90;;;;;;5031457;28;20042;-72
2024/01/25 06:38:48;;;;;;;52.88;8.02;;;5.00;99.90;;;;;;5030026;28;20041;-73
2024/01/25 06:41:15;;;;;;;48.33;8.27;;;5.00;99.90;;;;;;5029181;28;21728;-73
2024/01/25 06:43:40;;;;;;;48.17;7.25;;;4.90;99.90;;;;;;5031180;28;20045;-73
2024/01/25 06:46:07;;;;;;;40.20;6.18;;;5.20;99.90;;;;;;5031540;28;20514;-72
2024/01/25 06:48:33;;;;;;;50.28;8.05;;;4.90;99.90;;;;;;5028200;28;20045;-72
2024/01/25 06:51:00;;;;;;;44.55;8.15;;;4.90;99.90;;;;;;5028728;28;20123;-72
2024/01/25 06:53:26;;;;;;;46.83;7.95;;;4.80;99.90;;;;;;5029707;28;20051;-72
2024/01/25 06:55:52;;;;;;;44.97;8.05;;;4.80;99.90;;;;;;5061139;28;20045;-73
2024/01/25 06:58:18;;;;;;;45.63;8.13;;;4.90;99.90;;;;;;5014210;28;20089;-73
2024/01/25 07:00:45;;;;;;;41.00;7.72;;;4.90;99.90;;;;;;5017112;28;20030;-72
2024/01/25 07:03:10;;;;;;;43.92;8.23;;;4.80;99.90;;;;;;5025643;28;20076;-72
2024/01/25 07:05:36;;;;;;;45.55;8.05;;;5.00;99.90;;;;;;5016337;28;20045;-73
2024/01/25 07:08:02;;;;;;;48.10;8.02;;;4.80;99.90;;;;;;5014003;28;20073;-72
2024/01/25 07:10:28;;;;;;;42.00;7.65;;;4.80;99.90;;;;;;5013061;28;20034;-73
2024/01/25 07:12:54;;;;;;;44.30;8.02;;;4.80;99.90;;;;;;5013143;28;20464;-72
2024/01/25 07:15:20;;;;;;;37.45;7.35;;;4.80;99.90;;;;;;5025061;28;20042;-72
2024/01/25 07:17:46;;;;;;;38.53;7.15;;;4.70;99.90;;;;;;5028567;28;20078;-73
2024/01/25 07:20:13;;;;;;;37.72;7.28;;;4.80;99.90;;;;;;5052351;28;20045;-73
2024/01/25 07:22:39;;;;;;;41.85;7.35;;;4.80;99.90;;;;;;5025711;28;20037;-73
2024/01/25 07:25:05;;;;;;;50.67;7.35;;;4.80;99.90;;;;;;5034856;28;20044;-76
2024/01/25 07:27:31;;;;;;;43.63;7.38;;;4.80;99.90;;;;;;5033558;28;20041;-77
2024/01/25 07:29:57;;;;;;;36.20;6.75;;;4.80;99.90;;;;;;5034972;28;20368;-79
2024/01/25 07:32:24;;;;;;;47.83;7.38;;;4.80;99.90;;;;;;5027123;28;20128;-78
2024/01/25 07:34:50;;;;;;;41.55;8.25;;;4.80;99.90;;;;;;5020567;28;20049;-78
2024/01/25 07:37:16;;;;;;;44.45;7.43;;;4.80;99.90;;;;;;5051452;28;20041;-77
2024/01/25 07:39:42;;;;;;;41.42;7.60;;;5.10;99.90;;;;;;5001080;28;20049;-79
2024/01/25 07:42:08;;;;;;;42.13;7.03;;;4.90;99.90;;;;;;5025952;28;20048;-80
2024/01/25 07:44:33;;;;;;;49.30;7.40;;;4.80;99.90;;;;;;5029802;28;20067;-79
2024/01/25 07:46:59;;;;;;;35.42;6.70;;;4.80;99.90;;;;;;5021773;28;20112;-79
2024/01/25 07:49:25;;;;;;;46.22;7.70;;;4.80;99.90;;;;;;5025258;28;20045;-79
2024/01/25 07:51:51;;;;;;;48.53;8.35;;;4.80;99.90;;;;;;5020441;28;20042;-78
2024/01/25 07:54:17;;;;;;;42.33;7.55;;;4.90;99.90;;;;;;5032056;28;20372;-75
2024/01/25 07:56:43;;;;;;;50.17;8.20;;;4.90;99.90;;;;;;5019332;28;20069;-82
2024/01/25 07:59:08;;;;;;;48.65;7.63;;;4.90;99.90;;;;;;5019234;28;20053;-76
2024/01/25 08:01:34;;;;;;;39.30;7.68;;;4.90;99.90;;;;;;5014567;28;20049;-80
2024/01/25 08:04:00;;;;;;;50.83;8.05;;;5.00;99.90;;;;;;5059555;28;20040;-78
2024/01/25 08:06:28;;;;;;;47.40;7.93;;;5.00;99.90;;;;;;5022560;28;20049;-77
2024/01/25 08:08:54;;;;;;;41.20;7.88;;;5.10;99.90;;;;;;5024043;28;20045;-79
2024/01/25 08:11:21;;;;;;;44.30;8.52;;;5.10;99.90;;;;;;5033326;28;20034;-77
2024/01/25 08:13:47;;;;;;;39.38;7.93;;;5.10;99.90;;;;;;5038654;28;20045;-79
2024/01/25 08:16:20;;;;;;;49.45;7.82;;;5.10;99.90;;;;;;5025981;28;20069;-80
2024/01/25 08:18:49;;;;;;;51.03;7.82;;;5.20;99.90;;;;;;5029578;28;20046;-78
2024/01/25 08:21:15;;;;;;;49.45;8.05;;;5.10;99.90;;;;;;5057567;28;20040;-79
2024/01/25 08:23:41;;;;;;;45.05;7.10;;;5.40;99.90;;;;;;5032752;28;20048;-78
2024/01/25 08:26:12;;;;;;;48.92;9.20;;;5.20;99.90;;;;;;5018100;28;20523;-78
2024/01/25 08:28:41;;;;;;;44.38;7.50;;;5.20;99.90;;;;;;5029601;28;20395;-78
2024/01/25 08:31:07;;;;;;;42.45;7.22;;;5.20;99.90;;;;;;5034114;28;20331;-79
2024/01/25 08:33:33;;;;;;;42.00;7.28;;;5.20;99.90;;;;;;5049480;28;20100;-77
2024/01/25 08:35:59;;;;;;;44.60;7.53;;;5.20;99.90;;;;;;5032522;28;20050;-78
2024/01/25 08:38:24;;;;;;;48.10;7.68;;;5.30;99.90;;;;;;5032650;28;20049;-76
2024/01/25 08:40:50;;;;;;;39.83;7.97;;;5.30;99.90;;;;;;5034296;28;20183;-79
2024/01/25 08:43:16;;;;;;;43.40;7.57;;;5.30;99.90;;;;;;5030935;28;20045;-80
2024/01/25 08:45:41;;;;;;;49.05;7.55;;;5.30;99.90;;;;;;5062691;28;20067;-78
2024/01/25 08:48:08;;;;;;;43.40;7.95;;;5.30;99.90;;;;;;5031667;28;20131;-78
2024/01/25 08:50:35;;;;;;;45.25;8.30;;;5.40;99.90;;;;;;5031435;28;20112;-80
2024/01/25 08:53:01;;;;;;;46.30;8.30;;;5.40;99.90;;;;;;5029993;28;20125;-80
2024/01/25 08:55:27;;;;;;;44.78;7.68;;;5.30;99.90;;;;;;5031006;28;20071;-75
2024/01/25 08:57:52;;;;;;;51.90;7.82;;;5.40;99.90;;;;;;5037660;28;20056;-78
2024/01/25 09:00:18;;;;;;;47.40;7.30;;;5.40;99.90;;;;;;5023760;28;20050;-77
2024/01/25 09:02:44;;;;;;;44.97;8.50;;;5.40;99.90;;;;;;5028140;28;20037;-78
2024/01/25 09:05:10;;;;;;;38.60;7.43;;;5.40;99.90;;;;;;5024361;28;20038;-78
2024/01/25 09:07:36;;;;;;;46.85;8.20;;;5.40;99.90;;;;;;5030073;28;20041;-79
2024/01/25 09:10:04;;;;;;;48.05;7.47;;;5.40;99.90;;;;;;5026917;28;20045;-77
2024/01/25 09:12:30;;;;;;;37.97;6.93;;;5.50;99.90;;;;;;5028093;28;20045;-75
2024/01/25 09:14:55;;;;;;;40.22;7.43;;;5.40;99.90;;;;;;5059761;28;20445;-75
2024/01/25 09:17:21;;;;;;;41.13;7.68;;;5.40;99.90;;;;;;5029950;28;20089;-83
2024/01/25 09:19:51;;;;;;;41.95;7.57;;;5.50;99.90;;;;;;5020434;28;20037;-79
2024/01/25 09:22:19;;;;;;;44.72;8.95;;;5.50;99.90;;;;;;5022641;28;20057;-78
2024/01/25 09:24:47;;;;;;;48.30;8.75;;;5.60;99.90;;;;;;5028186;28;20417;-78
2024/01/25 09:27:13;;;;;;;42.85;7.53;;;5.60;99.90;;;;;;5030089;28;20073;-77
2024/01/25 09:29:40;;;;;;;42.22;7.82;;;5.70;99.90;;;;;;5022170;28;20042;-89
2024/01/25 09:32:08;;;;;;;46.47;8.65;;;5.70;99.90;;;;;;5011085;28;20120;-80
2024/01/25 09:34:38;;;;;;;46.38;7.40;;;5.80;99.90;;;;;;5029990;28;20045;-81
2024/01/25 09:37:05;;;;;;;42.90;6.68;;;5.90;99.90;;;;;;5047101;28;20483;-82
2024/01/25 09:39:35;;;;;;;46.00;7.70;;;5.90;99.90;;;;;;5031652;28;20120;-82
2024/01/25 09:42:02;;;;;;;37.90;8.02;;;5.90;99.90;;;;;;5030614;28;20474;-82
2024/01/25 09:44:28;;;;;;;42.50;7.28;;;6.00;99.90;;;;;;5031577;28;20064;-82
2024/01/25 09:46:54;;;;;;;43.95;7.72;;;6.00;99.90;;;;;;4998008;28;20041;-81
2024/01/25 09:49:21;;;;;;;42.95;9.05;;;6.10;99.90;;;;;;5031358;28;20116;-81
2024/01/25 09:51:50;;;;;;;43.72;6.95;;;6.10;99.90;;;;;;5030549;28;20048;-80
2024/01/25 09:54:16;;;;;;;48.10;8.45;;;6.10;99.90;;;;;;5064372;28;20033;-80
2024/01/25 09:56:42;;;;;;;41.33;8.88;;;6.20;99.90;;;;;;5046216;28;20076;-80
2024/01/25 09:59:08;;;;;;;52.72;8.30;;;6.30;99.90;;;;;;5047796;28;20038;-81
2024/01/25 10:01:34;;;;;;;46.92;8.88;;;6.30;99.90;;;;;;5014107;28;20053;-81
2024/01/25 10:04:00;;;;;;;44.08;7.38;;;6.30;99.90;;;;;;5030942;28;20448;-82
2024/01/25 10:06:26;;;;;;;44.50;9.15;;;6.40;99.90;;;;;;5006770;28;20151;-81
2024/01/25 10:08:53;;;;;;;36.40;6.88;;;6.40;99.90;;;;;;5061012;28;20033;-80
2024/01/25 10:11:19;;;;;;;39.20;7.35;;;6.50;99.90;;;;;;5028536;28;20319;-84
2024/01/25 10:13:47;;;;;;;45.10;8.25;;;6.50;99.90;;;;;;5057191;28;20083;-80
2024/01/25 10:16:18;;;;;;;37.80;7.57;;;6.60;99.90;;;;;;5063346;28;20120;-83
2024/01/25 10:18:46;;;;;;;34.33;7.20;;;6.60;99.90;;;;;;5028774;28;20451;-82
2024/01/25 10:21:13;;;;;;;46.33;7.57;;;6.70;99.90;;;;;;5015887;28;20041;-81
2024/01/25 10:23:40;;;;;;;29.88;6.35;;;6.80;99.90;;;;;;5022907;28;20045;-79
2024/01/25 10:26:08;;;;;;;34.42;6.95;;;6.80;99.90;;;;;;5030732;28;20076;-81
2024/01/25 10:28:34;;;;;;;39.70;7.95;;;6.90;99.90;;;;;;5023481;28;20052;-82
2024/01/25 10:31:01;;;;;;;40.65;7.97;;;6.90;99.90;;;;;;5023797;28;20068;-83
2024/01/25 10:33:27;;;;;;;44.85;8.65;;;6.90;99.90;;;;;;5022723;28;20057;-81
2024/01/25 10:36:04;;;;;;;39.00;7.70;;;6.90;99.90;;;;;;5018377;28;20074;-82
2024/01/25 10:38:37;;;;;;;37.63;8.48;;;6.90;99.90;;;;;;5023288;28;20049;-82
2024/01/25 10:41:05;;;;;;;39.20;8.00;;;6.90;99.90;;;;;;5039586;28;20098;-80
2024/01/25 10:43:32;;;;;;;40.88;7.47;;;6.80;99.90;;;;;;5029042;28;20375;-80
2024/01/25 10:45:58;;;;;;;33.92;7.63;;;6.70;99.90;;;;;;5013189;28;20049;-80
2024/01/25 10:48:28;;;;;;;35.22;7.28;;;6.70;99.90;;;;;;5012539;28;20077;-79
2024/01/25 10:50:55;;;;;;;43.22;7.80;;;6.80;99.90;;;;;;5035508;28;20044;-81
2024/01/25 10:53:23;;;;;;;39.95;7.90;;;6.80;99.90;;;;;;5073694;28;20049;-82
2024/01/25 10:55:49;;;;;;;49.33;8.75;;;6.80;99.90;;;;;;5030879;28;20435;-87
2024/01/25 10:58:16;;;;;;;49.83;8.77;;;6.80;99.90;;;;;;5044099;28;20165;-84
2024/01/25 11:00:50;;;;;;;27.67;7.38;;;6.90;99.90;;;;;;5045467;28;20049;-87
2024/01/25 11:03:17;;;;;;;39.28;9.23;;;6.90;99.90;;;;;;5031000;28;20049;-88
2024/01/25 11:05:43;;;;;;;38.55;8.63;;;7.00;99.90;;;;;;5031354;28;20076;-87
2024/01/25 11:08:19;;;;;;;34.75;8.00;;;7.20;99.90;;;;;;5037923;28;20041;-87
2024/01/25 11:10:50;;;;;;;40.78;9.07;;;7.20;99.90;;;;;;5042561;28;20463;-82
2024/01/25 11:13:16;;;;;;;38.78;9.77;;;7.30;99.90;;;;;;5036265;28;20057;-86
2024/01/25 11:15:41;;;;;;;45.40;10.13;;;7.40;99.90;;;;;;5067973;28;20378;-86
2024/01/25 11:18:08;;;;;;;50.83;8.40;;;7.40;99.90;;;;;;5048375;28;20049;-86
2024/01/25 11:20:36;;;;;;;35.83;8.40;;;7.40;99.90;;;;;;5062479;28;20057;-87
2024/01/25 11:23:04;;;;;;;41.80;7.45;;;7.50;99.90;;;;;;5034949;28;20052;-85
2024/01/25 11:25:35;;;;;;;37.58;8.95;;;7.50;99.90;;;;;;5064145;28;20096;-88
2024/01/25 11:28:02;;;;;;;33.72;7.60;;;7.50;99.90;;;;;;5061259;28;20042;-86
2024/01/25 11:30:29;;;;;;;40.20;9.02;;;7.50;99.90;;;;;;5029748;28;20087;-85
2024/01/25 11:32:55;;;;;;;36.33;8.10;;;7.50;99.90;;;;;;5058289;28;20471;-88
2024/01/25 11:35:21;;;;;;;39.03;9.75;;;7.50;99.90;;;;;;5021959;28;20438;-88
2024/01/25 11:37:48;;;;;;;36.72;8.57;;;7.50;99.90;;;;;;5023468;28;20045;-89
2024/01/25 11:40:15;;;;;;;33.45;7.65;;;7.50;99.90;;;;;;5020894;28;20041;-87
2024/01/25 11:42:47;;;;;;;35.13;7.72;;;7.60;99.90;;;;;;5027384;28;20045;-86
2024/01/25 11:45:16;;;;;;;34.08;9.27;;;7.60;99.90;;;;;;5020905;28;20100;-89
2024/01/25 11:47:43;;;;;;;39.60;7.85;;;7.60;99.90;;;;;;5015207;28;20335;-90
2024/01/25 11:50:11;;;;;;;36.25;8.23;;;7.60;99.90;;;;;;5012223;28;20045;-87
2024/01/25 11:52:38;;;;;;;31.70;8.55;;;7.60;99.90;;;;;;5017446;28;20136;-92
2024/01/25 11:55:06;;;;;;;33.72;8.35;;;7.60;99.90;;;;;;5036641;28;20352;-90
2024/01/25 11:57:35;;;;;;;38.90;7.88;;;7.60;99.90;;;;;;5022967;28;20340;-91
2024/01/25 12:00:02;;;;;;;30.05;6.85;;;7.60;99.90;;;;;;5013471;28;20033;-91
2024/01/25 12:02:28;;;;;;;35.03;7.15;;;7.70;99.90;;;;;;5019334;28;20096;-92
2024/01/25 12:04:56;;;;;;;37.50;7.70;;;7.60;99.90;;;;;;5014619;28;20483;-84
2024/01/25 12:07:22;;;;;;;36.47;7.10;;;7.60;99.90;;;;;;5020796;28;20506;-91
2024/01/25 12:10:04;;;;;;;34.58;7.78;;;7.70;99.90;;;;;;5016485;28;20050;-88
2024/01/25 12:12:30;;;;;;;37.05;7.88;;;7.70;99.90;;;;;;5031385;28;20040;-89
2024/01/25 12:15:00;;;;;;;35.70;6.70;;;7.60;99.90;;;;;;5021047;28;20033;-83
2024/01/25 12:17:28;;;;;;;39.42;7.63;;;7.70;99.90;;;;;;5068847;28;20072;-91
2024/01/25 12:19:58;;;;;;;37.85;7.38;;;7.70;99.90;;;;;;5022536;28;20479;-90
2024/01/25 12:22:30;;;;;;;40.30;7.82;;;7.70;99.90;;;;;;5034834;28;20136;-88
2024/01/25 12:24:57;;;;;;;34.55;6.13;;;7.70;99.90;;;;;;5039404;28;20046;-82
2024/01/25 12:27:24;;;;;;;34.83;7.15;;;7.70;99.90;;;;;;5049450;28;20041;-90
2024/01/25 12:29:53;;;;;;;29.20;6.85;;;7.80;99.90;;;;;;5022093;28;20305;-88
2024/01/25 12:32:20;;;;;;;33.55;7.10;;;7.80;99.90;;;;;;5046658;28;20510;-85
2024/01/25 12:34:56;;;;;;;29.48;7.18;;;7.80;99.90;;;;;;5029699;28;20037;-86
2024/01/25 12:37:22;;;;;;;27.95;6.13;;;7.90;99.90;;;;;;5051929;28;20119;-87
2024/01/25 12:39:48;;;;;;;32.42;7.05;;;7.90;99.90;;;;;;5034761;28;20048;-84
2024/01/25 12:42:14;;;;;;;28.48;6.88;;;8.00;99.90;;;;;;5033361;28;20506;-85
2024/01/25 12:44:40;;;;;;;34.55;6.35;;;8.10;99.90;;;;;;5023095;28;20041;-85